sensor_id;sensor_type;location;lat;lon;timestamp;pressure;altitude;pressure_sealevel;temperature;humidity
69909;BME280;57190;47.918;8.112;2023-03-04T00:02:08;91108.88;;;-0.52;76.00
69909;BME280;57190;47.918;8.112;2023-03-04T00:04:34;91110.69;;;-0.53;76.16
69909;BME280;57190;47.918;8.112;2023-03-04T00:06:59;91107.66;;;-0.56;76.05
69909;BME280;57190;47.918;8.112;2023-03-04T00:09:25;91118.72;;;-0.54;76.25
69909;BME280;57190;47.918;8.112;2023-03-04T00:11:51;91112.50;;;-0.53;76.08
69909;BME280;57190;47.918;8.112;2023-03-04T00:14:16;91118.94;;;-0.56;76.16
69909;BME280;57190;47.918;8.112;2023-03-04T00:16:42;91117.50;;;-0.58;76.14
69909;BME280;57190;47.918;8.112;2023-03-04T00:19:09;91111.22;;;-0.64;75.78
69909;BME280;57190;47.918;8.112;2023-03-04T00:21:35;91110.59;;;-0.66;76.01
69909;BME280;57190;47.918;8.112;2023-03-04T00:24:00;91112.44;;;-0.67;76.11
69909;BME280;57190;47.918;8.112;2023-03-04T00:29:23;91115.63;;;-0.71;76.41
69909;BME280;57190;47.918;8.112;2023-03-04T00:31:48;91109.16;;;-0.75;75.98
69909;BME280;57190;47.918;8.112;2023-03-04T00:34:13;91108.78;;;-0.72;76.23
69909;BME280;57190;47.918;8.112;2023-03-04T00:36:39;91113.81;;;-0.71;76.08
69909;BME280;57190;47.918;8.112;2023-03-04T00:39:04;91114.84;;;-0.65;76.58
69909;BME280;57190;47.918;8.112;2023-03-04T00:41:30;91112.22;;;-0.65;75.77
69909;BME280;57190;47.918;8.112;2023-03-04T00:43:55;91111.81;;;-0.69;76.02
69909;BME280;57190;47.918;8.112;2023-03-04T00:46:21;91117.69;;;-0.67;75.97
69909;BME280;57190;47.918;8.112;2023-03-04T00:48:46;91119.47;;;-0.67;76.41
69909;BME280;57190;47.918;8.112;2023-03-04T00:51:11;91115.59;;;-0.78;76.29
69909;BME280;57190;47.918;8.112;2023-03-04T00:53:37;91109.50;;;-0.85;76.37
69909;BME280;57190;47.918;8.112;2023-03-04T00:56:02;91118.34;;;-0.86;76.80
69909;BME280;57190;47.918;8.112;2023-03-04T00:58:28;91119.56;;;-0.89;76.33
69909;BME280;57190;47.918;8.112;2023-03-04T01:00:53;91113.31;;;-0.88;76.67
69909;BME280;57190;47.918;8.112;2023-03-04T01:03:19;91114.09;;;-0.94;76.96
69909;BME280;57190;47.918;8.112;2023-03-04T01:05:44;91108.59;;;-0.99;76.84
69909;BME280;57190;47.918;8.112;2023-03-04T01:08:10;91101.16;;;-1.02;76.80
69909;BME280;57190;47.918;8.112;2023-03-04T01:10:35;91106.13;;;-1.07;76.62
69909;BME280;57190;47.918;8.112;2023-03-04T01:13:07;91100.31;;;-1.09;76.78
69909;BME280;57190;47.918;8.112;2023-03-04T01:15:33;91102.09;;;-1.10;76.48
69909;BME280;57190;47.918;8.112;2023-03-04T01:18:09;91096.63;;;-1.15;77.00
69909;BME280;57190;47.918;8.112;2023-03-04T01:20:34;91097.00;;;-1.18;76.82
69909;BME280;57190;47.918;8.112;2023-03-04T01:22:59;91093.97;;;-1.22;77.49
69909;BME280;57190;47.918;8.112;2023-03-04T01:25:25;91105.44;;;-1.23;77.15
69909;BME280;57190;47.918;8.112;2023-03-04T01:27:50;91091.53;;;-1.23;77.38
69909;BME280;57190;47.918;8.112;2023-03-04T01:30:16;91090.34;;;-1.21;77.52
69909;BME280;57190;47.918;8.112;2023-03-04T01:32:42;91087.94;;;-1.16;77.25
69909;BME280;57190;47.918;8.112;2023-03-04T01:35:07;91087.94;;;-1.16;77.47
69909;BME280;57190;47.918;8.112;2023-03-04T01:37:33;91083.91;;;-1.18;77.20
69909;BME280;57190;47.918;8.112;2023-03-04T01:39:58;91089.34;;;-1.20;77.62
69909;BME280;57190;47.918;8.112;2023-03-04T01:42:25;91081.88;;;-1.23;77.05
69909;BME280;57190;47.918;8.112;2023-03-04T01:44:52;91085.47;;;-1.31;77.14
69909;BME280;57190;47.918;8.112;2023-03-04T01:47:18;91073.31;;;-1.38;77.59
69909;BME280;57190;47.918;8.112;2023-03-04T01:49:53;91081.22;;;-1.32;77.41
69909;BME280;57190;47.918;8.112;2023-03-04T01:52:19;91077.19;;;-1.28;77.79
69909;BME280;57190;47.918;8.112;2023-03-04T01:54:45;91072.16;;;-1.29;77.56
69909;BME280;57190;47.918;8.112;2023-03-04T01:57:20;91068.34;;;-1.27;77.46
69909;BME280;57190;47.918;8.112;2023-03-04T02:00:10;91067.34;;;-1.25;77.80
69909;BME280;57190;47.918;8.112;2023-03-04T02:02:40;91064.38;;;-1.22;77.53
69909;BME280;57190;47.918;8.112;2023-03-04T02:05:05;91069.19;;;-1.19;77.54
69909;BME280;57190;47.918;8.112;2023-03-04T02:07:31;91054.91;;;-1.17;77.75
69909;BME280;57190;47.918;8.112;2023-03-04T02:09:56;91049.50;;;-1.15;77.94
69909;BME280;57190;47.918;8.112;2023-03-04T02:12:22;91051.13;;;-1.14;77.35
69909;BME280;57190;47.918;8.112;2023-03-04T02:14:48;91048.31;;;-1.13;77.70
69909;BME280;57190;47.918;8.112;2023-03-04T02:17:13;91049.88;;;-1.18;77.93
69909;BME280;57190;47.918;8.112;2023-03-04T02:19:51;91056.69;;;-1.24;77.72
69909;BME280;57190;47.918;8.112;2023-03-04T02:22:19;91054.22;;;-1.32;78.00
69909;BME280;57190;47.918;8.112;2023-03-04T02:24:47;91060.66;;;-1.35;78.06
69909;BME280;57190;47.918;8.112;2023-03-04T02:27:14;91050.97;;;-1.34;77.75
69909;BME280;57190;47.918;8.112;2023-03-04T02:29:40;91047.56;;;-1.35;78.09
69909;BME280;57190;47.918;8.112;2023-03-04T02:32:05;91038.91;;;-1.35;78.25
69909;BME280;57190;47.918;8.112;2023-03-04T02:34:33;91048.06;;;-1.46;77.70
69909;BME280;57190;47.918;8.112;2023-03-04T02:37:00;91048.78;;;-1.59;77.62
69909;BME280;57190;47.918;8.112;2023-03-04T02:39:30;91053.13;;;-1.73;77.90
69909;BME280;57190;47.918;8.112;2023-03-04T02:41:56;91044.41;;;-1.80;77.86
69909;BME280;57190;47.918;8.112;2023-03-04T02:44:25;91041.19;;;-1.82;78.19
69909;BME280;57190;47.918;8.112;2023-03-04T02:46:51;91037.81;;;-1.76;78.35
69909;BME280;57190;47.918;8.112;2023-03-04T02:49:18;91041.47;;;-1.70;78.73
69909;BME280;57190;47.918;8.112;2023-03-04T02:51:43;91040.91;;;-1.66;78.39
69909;BME280;57190;47.918;8.112;2023-03-04T02:54:20;91039.03;;;-1.72;77.84
69909;BME280;57190;47.918;8.112;2023-03-04T02:56:53;91038.66;;;-1.69;78.44
69909;BME280;57190;47.918;8.112;2023-03-04T02:59:21;91031.88;;;-1.63;78.35
69909;BME280;57190;47.918;8.112;2023-03-04T03:01:46;91032.50;;;-1.61;78.43
69909;BME280;57190;47.918;8.112;2023-03-04T03:04:13;91034.28;;;-1.62;79.02
69909;BME280;57190;47.918;8.112;2023-03-04T03:06:39;91037.53;;;-1.60;78.59
69909;BME280;57190;47.918;8.112;2023-03-04T03:09:05;91028.31;;;-1.55;78.89
69909;BME280;57190;47.918;8.112;2023-03-04T03:11:31;91025.56;;;-1.47;78.77
69909;BME280;57190;47.918;8.112;2023-03-04T03:13:57;91030.16;;;-1.49;78.58
69909;BME280;57190;47.918;8.112;2023-03-04T03:16:23;91024.31;;;-1.51;78.78
69909;BME280;57190;47.918;8.112;2023-03-04T03:18:48;91026.13;;;-1.52;78.72
69909;BME280;57190;47.918;8.112;2023-03-04T03:21:14;91025.88;;;-1.57;78.37
69909;BME280;57190;47.918;8.112;2023-03-04T03:23:39;91023.25;;;-1.57;78.71
69909;BME280;57190;47.918;8.112;2023-03-04T03:26:05;91020.88;;;-1.52;78.82
69909;BME280;57190;47.918;8.112;2023-03-04T03:28:30;91021.53;;;-1.43;78.90
69909;BME280;57190;47.918;8.112;2023-03-04T03:30:56;91021.75;;;-1.45;78.82
69909;BME280;57190;47.918;8.112;2023-03-04T03:33:22;91028.16;;;-1.47;79.04
69909;BME280;57190;47.918;8.112;2023-03-04T03:35:47;91021.06;;;-1.53;79.28
69909;BME280;57190;47.918;8.112;2023-03-04T03:38:13;91022.63;;;-1.59;79.04
69909;BME280;57190;47.918;8.112;2023-03-04T03:41:02;91021.78;;;-1.66;79.21
69909;BME280;57190;47.918;8.112;2023-03-04T03:43:30;91028.81;;;-1.67;79.14
69909;BME280;57190;47.918;8.112;2023-03-04T03:45:56;91025.78;;;-1.70;79.00
69909;BME280;57190;47.918;8.112;2023-03-04T03:48:21;91025.28;;;-1.81;78.84
69909;BME280;57190;47.918;8.112;2023-03-04T03:50:46;91022.00;;;-1.90;79.29
69909;BME280;57190;47.918;8.112;2023-03-04T03:53:12;91023.00;;;-1.91;78.91
69909;BME280;57190;47.918;8.112;2023-03-04T03:55:37;91024.38;;;-1.95;79.08
69909;BME280;57190;47.918;8.112;2023-03-04T03:58:04;91014.91;;;-1.96;79.10
69909;BME280;57190;47.918;8.112;2023-03-04T04:00:29;91020.56;;;-1.92;78.99
69909;BME280;57190;47.918;8.112;2023-03-04T04:02:57;91026.81;;;-1.93;78.71
69909;BME280;57190;47.918;8.112;2023-03-04T04:05:23;91024.19;;;-1.93;79.04
69909;BME280;57190;47.918;8.112;2023-03-04T04:07:48;91030.22;;;-1.93;79.50
69909;BME280;57190;47.918;8.112;2023-03-04T04:10:14;91030.41;;;-1.94;79.74
69909;BME280;57190;47.918;8.112;2023-03-04T04:12:39;91033.41;;;-1.97;79.84
69909;BME280;57190;47.918;8.112;2023-03-04T04:15:05;91029.09;;;-2.05;79.73
69909;BME280;57190;47.918;8.112;2023-03-04T04:18:08;91027.50;;;-2.06;79.75
69909;BME280;57190;47.918;8.112;2023-03-04T04:20:33;91028.50;;;-2.07;79.58
69909;BME280;57190;47.918;8.112;2023-03-04T04:22:59;91025.31;;;-2.02;80.00
69909;BME280;57190;47.918;8.112;2023-03-04T04:25:24;91028.28;;;-2.06;80.20
69909;BME280;57190;47.918;8.112;2023-03-04T04:27:50;91022.28;;;-2.06;80.00
69909;BME280;57190;47.918;8.112;2023-03-04T04:30:16;91026.03;;;-2.09;79.59
69909;BME280;57190;47.918;8.112;2023-03-04T04:32:41;91021.25;;;-2.05;79.95
69909;BME280;57190;47.918;8.112;2023-03-04T04:35:07;91023.00;;;-2.12;79.87
69909;BME280;57190;47.918;8.112;2023-03-04T04:37:33;91028.19;;;-2.19;79.91
69909;BME280;57190;47.918;8.112;2023-03-04T04:39:58;91027.91;;;-2.24;79.63
69909;BME280;57190;47.918;8.112;2023-03-04T04:42:24;91030.28;;;-2.29;79.56
69909;BME280;57190;47.918;8.112;2023-03-04T04:44:50;91026.41;;;-2.33;79.51
69909;BME280;57190;47.918;8.112;2023-03-04T04:47:17;91026.63;;;-2.35;79.23
69909;BME280;57190;47.918;8.112;2023-03-04T04:49:42;91031.84;;;-2.35;79.16
69909;BME280;57190;47.918;8.112;2023-03-04T04:52:08;91038.25;;;-2.38;79.45
69909;BME280;57190;47.918;8.112;2023-03-04T04:54:37;91032.03;;;-2.37;79.36
69909;BME280;57190;47.918;8.112;2023-03-04T04:57:02;91027.88;;;-2.31;79.23
69909;BME280;57190;47.918;8.112;2023-03-04T04:59:27;91030.72;;;-2.26;79.37
69909;BME280;57190;47.918;8.112;2023-03-04T05:01:53;91030.72;;;-2.26;79.27
69909;BME280;57190;47.918;8.112;2023-03-04T05:04:18;91033.53;;;-2.27;79.27
69909;BME280;57190;47.918;8.112;2023-03-04T05:06:44;91031.09;;;-2.29;79.26
69909;BME280;57190;47.918;8.112;2023-03-04T05:09:09;91039.56;;;-2.27;79.82
69909;BME280;57190;47.918;8.112;2023-03-04T05:11:35;91038.13;;;-2.29;79.86
69909;BME280;57190;47.918;8.112;2023-03-04T05:14:00;91039.13;;;-2.30;80.13
69909;BME280;57190;47.918;8.112;2023-03-04T05:16:26;91039.91;;;-2.30;79.96
69909;BME280;57190;47.918;8.112;2023-03-04T05:18:51;91027.88;;;-2.31;79.89
69909;BME280;57190;47.918;8.112;2023-03-04T05:21:17;91036.44;;;-2.37;79.72
69909;BME280;57190;47.918;8.112;2023-03-04T05:23:43;91038.59;;;-2.41;79.65
69909;BME280;57190;47.918;8.112;2023-03-04T05:26:12;91033.13;;;-2.46;79.41
69909;BME280;57190;47.918;8.112;2023-03-04T05:28:37;91030.53;;;-2.46;80.08
69909;BME280;57190;47.918;8.112;2023-03-04T05:31:03;91036.75;;;-2.47;79.08
69909;BME280;57190;47.918;8.112;2023-03-04T05:33:29;91030.88;;;-2.49;79.36
69909;BME280;57190;47.918;8.112;2023-03-04T05:35:55;91028.72;;;-2.45;78.86
69909;BME280;57190;47.918;8.112;2023-03-04T05:38:21;91033.13;;;-2.46;79.19
69909;BME280;57190;47.918;8.112;2023-03-04T05:40:48;91033.31;;;-2.47;79.29
69909;BME280;57190;47.918;8.112;2023-03-04T05:43:15;91035.56;;;-2.44;79.49
69909;BME280;57190;47.918;8.112;2023-03-04T05:45:40;91037.63;;;-2.40;79.64
69909;BME280;57190;47.918;8.112;2023-03-04T05:48:07;91038.25;;;-2.38;79.42
69909;BME280;57190;47.918;8.112;2023-03-04T05:50:33;91038.31;;;-2.31;79.29
69909;BME280;57190;47.918;8.112;2023-03-04T05:52:58;91030.50;;;-2.31;78.99
69909;BME280;57190;47.918;8.112;2023-03-04T05:55:25;91037.94;;;-2.28;79.74
69909;BME280;57190;47.918;8.112;2023-03-04T05:57:52;91037.56;;;-2.25;79.89
69909;BME280;57190;47.918;8.112;2023-03-04T06:00:18;91044.34;;;-2.30;80.37
69909;BME280;57190;47.918;8.112;2023-03-04T06:02:44;91040.75;;;-2.29;80.50
69909;BME280;57190;47.918;8.112;2023-03-04T06:05:11;91037.69;;;-2.33;80.19
69909;BME280;57190;47.918;8.112;2023-03-04T06:07:37;91037.97;;;-2.43;79.48
69909;BME280;57190;47.918;8.112;2023-03-04T06:10:03;91042.97;;;-2.48;79.75
69909;BME280;57190;47.918;8.112;2023-03-04T06:12:29;91050.00;;;-2.48;79.57
69909;BME280;57190;47.918;8.112;2023-03-04T06:14:54;91050.69;;;-2.40;80.09
69909;BME280;57190;47.918;8.112;2023-03-04T06:17:30;91052.19;;;-2.30;79.68
69909;BME280;57190;47.918;8.112;2023-03-04T06:19:59;91044.84;;;-2.20;79.55
69909;BME280;57190;47.918;8.112;2023-03-04T06:22:24;91053.25;;;-2.25;79.74
69909;BME280;57190;47.918;8.112;2023-03-04T06:24:50;91051.50;;;-2.17;79.11
69909;BME280;57190;47.918;8.112;2023-03-04T06:27:16;91051.38;;;-2.09;79.24
69909;BME280;57190;47.918;8.112;2023-03-04T06:29:41;91054.38;;;-2.12;79.01
69909;BME280;57190;47.918;8.112;2023-03-04T06:32:07;91058.25;;;-2.08;79.20
69909;BME280;57190;47.918;8.112;2023-03-04T06:34:32;91057.13;;;-1.99;78.85
69909;BME280;57190;47.918;8.112;2023-03-04T06:36:59;91054.81;;;-1.87;79.15
69909;BME280;57190;47.918;8.112;2023-03-04T06:39:24;91056.09;;;-1.76;79.22
69909;BME280;57190;47.918;8.112;2023-03-04T06:41:50;91060.78;;;-1.71;79.02
69909;BME280;57190;47.918;8.112;2023-03-04T06:44:16;91064.31;;;-1.58;79.06
69909;BME280;57190;47.918;8.112;2023-03-04T06:46:42;91062.00;;;-1.46;78.88
69909;BME280;57190;47.918;8.112;2023-03-04T06:49:13;91060.66;;;-1.35;78.57
69909;BME280;57190;47.918;8.112;2023-03-04T06:51:42;91059.56;;;-1.19;78.23
69909;BME280;57190;47.918;8.112;2023-03-04T06:54:08;91063.25;;;-1.06;78.29
69909;BME280;57190;47.918;8.112;2023-03-04T06:56:33;91059.06;;;-1.01;78.04
69909;BME280;57190;47.918;8.112;2023-03-04T06:58:59;91068.56;;;-0.93;77.58
69909;BME280;57190;47.918;8.112;2023-03-04T07:01:26;91070.84;;;-0.83;77.55
69909;BME280;57190;47.918;8.112;2023-03-04T07:03:53;91067.84;;;-0.73;76.88
69909;BME280;57190;47.918;8.112;2023-03-04T07:06:21;91073.13;;;-0.67;77.22
69909;BME280;57190;47.918;8.112;2023-03-04T07:08:47;91070.56;;;-0.60;76.90
69909;BME280;57190;47.918;8.112;2023-03-04T07:11:12;91070.59;;;-0.46;76.85
69909;BME280;57190;47.918;8.112;2023-03-04T07:13:38;91072.47;;;-0.34;76.62
69909;BME280;57190;47.918;8.112;2023-03-04T07:16:08;91067.47;;;-0.22;76.62
69909;BME280;57190;47.918;8.112;2023-03-04T07:18:35;91070.72;;;-0.06;76.28
69909;BME280;57190;47.918;8.112;2023-03-04T07:21:01;91071.75;;;0.13;76.03
69909;BME280;57190;47.918;8.112;2023-03-04T07:23:27;91073.41;;;0.34;75.85
69909;BME280;57190;47.918;8.112;2023-03-04T07:25:52;91077.09;;;0.53;75.67
69909;BME280;57190;47.918;8.112;2023-03-04T07:28:18;91075.88;;;0.62;74.68
69909;BME280;57190;47.918;8.112;2023-03-04T07:30:43;91079.69;;;0.93;74.39
69909;BME280;57190;47.918;8.112;2023-03-04T07:33:09;91082.69;;;1.24;73.19
69909;BME280;57190;47.918;8.112;2023-03-04T07:35:34;91077.22;;;1.25;72.95
69909;BME280;57190;47.918;8.112;2023-03-04T07:38:00;91074.91;;;1.63;72.54
69909;BME280;57190;47.918;8.112;2023-03-04T07:40:25;91073.28;;;1.62;72.06
69909;BME280;57190;47.918;8.112;2023-03-04T07:42:52;91082.41;;;1.98;70.64
69909;BME280;57190;47.918;8.112;2023-03-04T07:45:22;91081.84;;;1.96;70.48
69909;BME280;57190;47.918;8.112;2023-03-04T07:47:48;91074.84;;;2.79;70.01
69909;BME280;57190;47.918;8.112;2023-03-04T07:50:14;91075.56;;;2.67;69.60
69909;BME280;57190;47.918;8.112;2023-03-04T07:52:42;91083.22;;;2.69;70.11
69909;BME280;57190;47.918;8.112;2023-03-04T07:55:09;91079.34;;;4.88;65.08
69909;BME280;57190;47.918;8.112;2023-03-04T07:57:46;91080.50;;;7.49;56.85
69909;BME280;57190;47.918;8.112;2023-03-04T08:00:14;91071.13;;;9.56;52.46
69909;BME280;57190;47.918;8.112;2023-03-04T08:02:40;91078.53;;;11.35;50.27
69909;BME280;57190;47.918;8.112;2023-03-04T08:05:07;91077.13;;;10.27;49.22
69909;BME280;57190;47.918;8.112;2023-03-04T08:07:33;91078.25;;;9.88;53.23
69909;BME280;57190;47.918;8.112;2023-03-04T08:09:58;91073.56;;;10.06;49.27
69909;BME280;57190;47.918;8.112;2023-03-04T08:12:24;91068.69;;;10.41;51.69
69909;BME280;57190;47.918;8.112;2023-03-04T08:14:50;91072.81;;;12.34;47.75
69909;BME280;57190;47.918;8.112;2023-03-04T08:17:16;91065.44;;;13.66;44.05
69909;BME280;57190;47.918;8.112;2023-03-04T08:19:45;91066.06;;;15.14;41.34
69909;BME280;57190;47.918;8.112;2023-03-04T08:22:29;91070.22;;;16.85;37.18
69909;BME280;57190;47.918;8.112;2023-03-04T08:24:58;91068.69;;;18.71;35.04
69909;BME280;57190;47.918;8.112;2023-03-04T08:27:23;91065.09;;;21.64;30.48
69909;BME280;57190;47.918;8.112;2023-03-04T08:29:48;91067.00;;;23.19;27.76
69909;BME280;57190;47.918;8.112;2023-03-04T08:32:14;91065.25;;;24.58;26.21
69909;BME280;57190;47.918;8.112;2023-03-04T08:34:39;91055.88;;;25.32;24.81
69909;BME280;57190;47.918;8.112;2023-03-04T08:37:06;91064.16;;;27.01;22.96
69909;BME280;57190;47.918;8.112;2023-03-04T08:39:31;91062.13;;;28.21;21.78
69909;BME280;57190;47.918;8.112;2023-03-04T08:42:15;91060.50;;;29.19;19.38
69909;BME280;57190;47.918;8.112;2023-03-04T08:44:50;91056.66;;;29.27;19.21
69909;BME280;57190;47.918;8.112;2023-03-04T08:47:35;91063.72;;;29.70;18.59
69909;BME280;57190;47.918;8.112;2023-03-04T08:50:22;91060.19;;;30.25;17.71
69909;BME280;57190;47.918;8.112;2023-03-04T08:52:58;91059.78;;;30.23;17.95
69909;BME280;57190;47.918;8.112;2023-03-04T08:55:23;91057.13;;;30.48;17.90
69909;BME280;57190;47.918;8.112;2023-03-04T08:57:48;91060.81;;;29.10;18.70
69909;BME280;57190;47.918;8.112;2023-03-04T09:00:17;91066.16;;;28.04;19.12
69909;BME280;57190;47.918;8.112;2023-03-04T09:03:02;91058.34;;;27.49;20.56
69909;BME280;57190;47.918;8.112;2023-03-04T09:05:46;91058.50;;;27.60;19.34
69909;BME280;57190;47.918;8.112;2023-03-04T09:08:16;91058.59;;;26.97;19.53
69909;BME280;57190;47.918;8.112;2023-03-04T09:10:43;91061.09;;;27.29;19.76
69909;BME280;57190;47.918;8.112;2023-03-04T09:13:31;91065.38;;;28.04;18.81
69909;BME280;57190;47.918;8.112;2023-03-04T09:15:59;91052.22;;;26.11;19.44
69909;BME280;57190;47.918;8.112;2023-03-04T09:18:26;91053.75;;;23.30;22.25
69909;BME280;57190;47.918;8.112;2023-03-04T09:21:10;91048.78;;;22.27;23.74
69909;BME280;57190;47.918;8.112;2023-03-04T09:23:53;91049.22;;;21.45;27.11
69909;BME280;57190;47.918;8.112;2023-03-04T09:26:35;91053.06;;;21.44;26.78
69909;BME280;57190;47.918;8.112;2023-03-04T09:29:01;91043.41;;;22.19;25.79
69909;BME280;57190;47.918;8.112;2023-03-04T09:31:49;91050.44;;;21.56;24.43
69909;BME280;57190;47.918;8.112;2023-03-04T09:34:29;91054.72;;;19.18;27.20
69909;BME280;57190;47.918;8.112;2023-03-04T09:36:58;91054.00;;;19.79;27.33
69909;BME280;57190;47.918;8.112;2023-03-04T09:39:26;91056.34;;;18.79;28.06
69909;BME280;57190;47.918;8.112;2023-03-04T09:42:16;91058.06;;;17.52;29.80
69909;BME280;57190;47.918;8.112;2023-03-04T09:44:53;91050.88;;;18.70;28.54
69909;BME280;57190;47.918;8.112;2023-03-04T09:50:04;91054.97;;;15.72;32.59
69909;BME280;57190;47.918;8.112;2023-03-04T09:55:42;91057.84;;;14.32;34.77
69909;BME280;57190;47.918;8.112;2023-03-04T09:58:38;91060.09;;;14.49;35.16
69909;BME280;57190;47.918;8.112;2023-03-04T10:01:35;91064.38;;;13.96;36.22
69909;BME280;57190;47.918;8.112;2023-03-04T10:07:00;91050.28;;;13.06;38.73
69909;BME280;57190;47.918;8.112;2023-03-04T10:09:35;91053.38;;;13.29;37.43
69909;BME280;57190;47.918;8.112;2023-03-04T10:12:28;91050.88;;;14.07;35.88
69909;BME280;57190;47.918;8.112;2023-03-04T10:15:10;91052.47;;;13.78;35.70
69909;BME280;57190;47.918;8.112;2023-03-04T10:17:45;91051.06;;;13.86;37.10
69909;BME280;57190;47.918;8.112;2023-03-04T10:20:21;91058.59;;;14.13;35.56
69909;BME280;57190;47.918;8.112;2023-03-04T10:22:49;91057.69;;;13.94;36.91
69909;BME280;57190;47.918;8.112;2023-03-04T10:25:27;91055.22;;;13.33;38.08
69909;BME280;57190;47.918;8.112;2023-03-04T10:33:24;91051.88;;;12.57;38.84
69909;BME280;57190;47.918;8.112;2023-03-04T10:38:24;91052.03;;;12.05;40.24
69909;BME280;57190;47.918;8.112;2023-03-04T10:40:50;91049.94;;;11.56;40.93
69909;BME280;57190;47.918;8.112;2023-03-04T10:43:18;91045.88;;;10.91;42.00
69909;BME280;57190;47.918;8.112;2023-03-04T10:45:45;91057.09;;;10.98;42.70
69909;BME280;57190;47.918;8.112;2023-03-04T10:48:26;91052.03;;;10.97;42.28
69909;BME280;57190;47.918;8.112;2023-03-04T10:50:53;91056.84;;;10.90;41.68
69909;BME280;57190;47.918;8.112;2023-03-04T10:53:35;91053.03;;;10.65;42.48
69909;BME280;57190;47.918;8.112;2023-03-04T10:56:30;91055.75;;;10.22;43.97
69909;BME280;57190;47.918;8.112;2023-03-04T11:04:52;91060.13;;;9.90;43.92
69909;BME280;57190;47.918;8.112;2023-03-04T11:07:19;91052.88;;;9.81;45.10
69909;BME280;57190;47.918;8.112;2023-03-04T11:09:45;91061.97;;;9.85;45.39
69909;BME280;57190;47.918;8.112;2023-03-04T11:12:13;91058.28;;;9.96;44.62
69909;BME280;57190;47.918;8.112;2023-03-04T11:14:50;91055.03;;;9.84;43.92
69909;BME280;57190;47.918;8.112;2023-03-04T11:17:26;91045.09;;;10.22;44.56
69909;BME280;57190;47.918;8.112;2023-03-04T11:20:00;91053.47;;;10.41;43.25
69909;BME280;57190;47.918;8.112;2023-03-04T11:22:30;91047.28;;;10.30;44.36
69909;BME280;57190;47.918;8.112;2023-03-04T11:25:01;91051.69;;;9.99;43.66
69909;BME280;57190;47.918;8.112;2023-03-04T11:27:39;91041.47;;;9.85;44.37
69909;BME280;57190;47.918;8.112;2023-03-04T11:32:52;91042.78;;;9.83;44.56
69909;BME280;57190;47.918;8.112;2023-03-04T11:38:03;91036.16;;;9.48;45.68
69909;BME280;57190;47.918;8.112;2023-03-04T11:40:39;91036.53;;;9.62;44.87
69909;BME280;57190;47.918;8.112;2023-03-04T11:46:04;91033.22;;;9.49;45.35
69909;BME280;57190;47.918;8.112;2023-03-04T11:48:48;91036.38;;;9.41;45.59
69909;BME280;57190;47.918;8.112;2023-03-04T12:11:01;91014.34;;;8.80;46.32
69909;BME280;57190;47.918;8.112;2023-03-04T12:13:45;91011.25;;;8.61;46.29
69909;BME280;57190;47.918;8.112;2023-03-04T12:19:26;90993.56;;;8.77;45.69
69909;BME280;57190;47.918;8.112;2023-03-04T12:27:51;90983.19;;;8.76;45.59
69909;BME280;57190;47.918;8.112;2023-03-04T12:38:20;90980.25;;;9.10;44.63
69909;BME280;57190;47.918;8.112;2023-03-04T12:46:14;90972.22;;;8.67;44.79
69909;BME280;57190;47.918;8.112;2023-03-04T12:48:55;90969.31;;;8.74;44.64
69909;BME280;57190;47.918;8.112;2023-03-04T12:51:49;90971.16;;;8.68;43.92
69909;BME280;57190;47.918;8.112;2023-03-04T12:54:38;90967.13;;;8.65;44.01
69909;BME280;57190;47.918;8.112;2023-03-04T12:57:23;90968.13;;;8.59;44.80
69909;BME280;57190;47.918;8.112;2023-03-04T13:00:16;90959.09;;;8.33;45.98
69909;BME280;57190;47.918;8.112;2023-03-04T13:08:28;90966.06;;;8.39;45.11
69909;BME280;57190;47.918;8.112;2023-03-04T13:11:49;90957.22;;;8.56;45.35
69909;BME280;57190;47.918;8.112;2023-03-04T13:14:03;90963.09;;;8.58;45.78
69909;BME280;57190;47.918;8.112;2023-03-04T13:16:49;90956.25;;;8.67;44.98
69909;BME280;57190;47.918;8.112;2023-03-04T13:25:30;90949.56;;;8.37;46.02
69909;BME280;57190;47.918;8.112;2023-03-04T13:28:29;90948.69;;;8.31;45.75
69909;BME280;57190;47.918;8.112;2023-03-04T13:38:37;90943.34;;;8.26;45.62
69909;BME280;57190;47.918;8.112;2023-03-04T13:43:52;90946.94;;;8.15;45.88
69909;BME280;57190;47.918;8.112;2023-03-04T13:51:41;90933.16;;;7.91;45.62
69909;BME280;57190;47.918;8.112;2023-03-04T13:56:46;90940.44;;;7.78;45.43
69909;BME280;57190;47.918;8.112;2023-03-04T14:06:40;90938.91;;;7.60;43.98
69909;BME280;57190;47.918;8.112;2023-03-04T14:09:22;90938.16;;;7.43;43.27
69909;BME280;57190;47.918;8.112;2023-03-04T14:11:49;90941.47;;;7.33;44.14
69909;BME280;57190;47.918;8.112;2023-03-04T14:14:21;90935.13;;;7.34;44.06
69909;BME280;57190;47.918;8.112;2023-03-04T14:16:50;90944.06;;;7.28;44.45
69909;BME280;57190;47.918;8.112;2023-03-04T14:19:27;90947.09;;;7.36;44.59
69909;BME280;57190;47.918;8.112;2023-03-04T14:21:54;90935.88;;;7.29;44.59
69909;BME280;57190;47.918;8.112;2023-03-04T14:24:21;90932.25;;;7.18;44.81
69909;BME280;57190;47.918;8.112;2023-03-04T14:26:47;90931.81;;;7.04;45.12
69909;BME280;57190;47.918;8.112;2023-03-04T14:29:24;90937.03;;;6.99;44.54
69909;BME280;57190;47.918;8.112;2023-03-04T14:31:51;90924.34;;;6.84;45.13
69909;BME280;57190;47.918;8.112;2023-03-04T14:34:28;90926.53;;;6.87;43.71
69909;BME280;57190;47.918;8.112;2023-03-04T14:36:57;90919.91;;;6.90;42.70
69909;BME280;57190;47.918;8.112;2023-03-04T14:39:25;90922.66;;;6.78;41.95
69909;BME280;57190;47.918;8.112;2023-03-04T14:41:53;90919.47;;;6.59;41.62
69909;BME280;57190;47.918;8.112;2023-03-04T14:47:08;90914.88;;;6.54;43.50
69909;BME280;57190;47.918;8.112;2023-03-04T14:49:38;90915.28;;;6.46;43.99
69909;BME280;57190;47.918;8.112;2023-03-04T14:52:24;90915.28;;;6.46;43.86
69909;BME280;57190;47.918;8.112;2023-03-04T14:55:15;90912.47;;;6.36;43.84
69909;BME280;57190;47.918;8.112;2023-03-04T14:57:43;90914.72;;;6.44;45.16
69909;BME280;57190;47.918;8.112;2023-03-04T15:03:02;90914.00;;;6.32;46.48
69909;BME280;57190;47.918;8.112;2023-03-04T15:05:35;90911.66;;;6.18;47.02
69909;BME280;57190;47.918;8.112;2023-03-04T15:08:15;90913.09;;;6.26;47.09
69909;BME280;57190;47.918;8.112;2023-03-04T15:10:53;90918.66;;;6.24;46.58
69909;BME280;57190;47.918;8.112;2023-03-04T15:13:37;90915.50;;;6.10;45.99
69909;BME280;57190;47.918;8.112;2023-03-04T15:16:03;90908.16;;;6.01;46.52